ID Time Temp Humidity Light PM2.5 PM10 Voltage Extra Firmware Position Fcnt TTN version Gateways Distance RSSI LSNR Radiosettings
2026-05-08 21:06:33 15.6875°C 70.125% 3.37V v4 52.0789 / 5.11267 352 ttn.v3 - -121 -10.5 867.3MHz, SF9BW125, 4/5CR
2026-05-08 20:34:14 16.1875°C 68.4375% 3.37V v4 52.0789 / 5.11267 350 ttn.v3 3.296km -108 -11.75 867.1MHz, SF9BW125, 4/5CR
2026-05-08 20:01:54 16.625°C 68.375% 3.37V v4 52.0789 / 5.11267 348 ttn.v3 3.296km -103 -9.25 867.9MHz, SF9BW125, 4/5CR
2026-05-08 18:24:55 16.5625°C 59.4375% 3.37V v4 52.0789 / 5.11267 342 ttn.v3 - -119 -6.75 867.3MHz, SF9BW125, 4/5CR
2026-05-08 17:20:15 16.6875°C 58.8125% 3.37V v4 52.0789 / 5.11267 338 ttn.v3 - -115 -3.25 867.9MHz, SF9BW125, 4/5CR
3.296km -107 -4.75 867.9MHz, SF9BW125, 4/5CR
2026-05-08 15:59:25 16.3125°C 20.75% 3.37V v4 52.0789 / 5.11267 333 ttn.v3 2.774km -128 -14.25 868.1MHz, SF9BW125, 4/5CR
2026-05-08 15:10:56 16°C 14.8125% 3.37V v4 52.0789 / 5.11267 330 ttn.v3 3.296km -110 -12.25 867.1MHz, SF9BW125, 4/5CR
2026-05-08 14:22:26 16.5°C 16.625% 3.37V v4 52.0789 / 5.11267 327 ttn.v3 2.774km -128 -14 868.1MHz, SF9BW125, 4/5CR
2026-05-08 14:06:17 16.6875°C 14.5625% 3.37V v4 52.0789 / 5.11267 326 ttn.v3 - -125 -11.5 867.7MHz, SF9BW125, 4/5CR
2026-05-08 13:50:07 16.9375°C 18.1875% 3.37V v4 52.0789 / 5.11267 325 ttn.v3 - -130 -14.75 868.5MHz, SF9BW125, 4/5CR
2026-05-08 11:56:57 15.5°C 111.312% 3.37V v4 52.0789 / 5.11267 318 ttn.v3 3.296km -110 -11.75 867.9MHz, SF9BW125, 4/5CR
2026-05-08 10:20:02 12.1875°C 90.375% 3.37V v4 52.0789 / 5.11267 312 ttn.v3 3.296km -102 -10.25 867.3MHz, SF9BW125, 4/5CR
1.148km -124 -13.8 867.3MHz, SF9BW125, 4/5CR
2026-05-08 09:15:27 10.4375°C 106.5% 3.37V v4 52.0789 / 5.11267 308 ttn.v3 3.296km -109 -6.25 867.9MHz, SF9BW125, 4/5CR
- -120 -8.75 867.9MHz, SF9BW125, 4/5CR
2.774km -129 -12.5 867.9MHz, SF9BW125, 4/5CR
2026-05-08 08:59:19 10.1875°C 96.625% 3.37V v4 52.0789 / 5.11267 307 ttn.v3 - -129 -14.5 868.5MHz, SF9BW125, 4/5CR
2026-05-08 08:43:10 10°C 90.625% 3.37V v4 52.0789 / 5.11267 306 ttn.v3 3.296km -110 -12.5 867.7MHz, SF9BW125, 4/5CR
2026-05-08 07:54:45 9.5625°C 75.25% 3.37V v4 52.0789 / 5.11267 303 ttn.v3 1.148km -124 -14.2 868.1MHz, SF9BW125, 4/5CR
2026-05-08 07:38:37 9.4375°C 72.5% 3.37V v4 52.0789 / 5.11267 302 ttn.v3 - -120 -10 867.3MHz, SF9BW125, 4/5CR
2026-05-08 07:06:20 9.5°C 76.125% 3.37V v4 52.0789 / 5.11267 300 ttn.v3 1.148km -125 -11 867.1MHz, SF9BW125, 4/5CR
3.296km -104 -11 867.1MHz, SF9BW125, 4/5CR
2026-05-08 06:34:03 9.4375°C 84.5% 3.37V v4 52.0789 / 5.11267 298 ttn.v3 - -115 -6 867.9MHz, SF9BW125, 4/5CR
3.296km -110 -6.25 867.9MHz, SF9BW125, 4/5CR
2.774km -129 -13.5 867.9MHz, SF9BW125, 4/5CR
2026-05-08 06:01:47 9.75°C 101.562% 3.37V v4 52.0789 / 5.11267 296 ttn.v3 3.296km -110 -9.75 867.7MHz, SF9BW125, 4/5CR
2.774km -129 -12.5 867.7MHz, SF9BW125, 4/5CR
1.148km -124 -14.5 867.7MHz, SF9BW125, 4/5CR
2026-05-08 05:47:49 9.8125°C 101.875% 3.37V v4 52.0789 / 5.11267 295 ttn.v3 - -127 -15.75 868.5MHz, SF12BW125, 4/5CR
- -109 -18.75 868.5MHz, SF12BW125, 4/5CR
2026-05-08 04:57:22 10.0625°C 89% 3.37V v4 52.0789 / 5.11276 292 ttn.v3 2.78km -129 -12.5 867.3MHz, SF9BW125, 4/5CR
2026-05-08 04:41:14 10.1875°C 95.5% 3.37V v4 52.0789 / 5.11276 291 ttn.v3 2.78km -128 -12.75 868.1MHz, SF9BW125, 4/5CR
2026-05-08 04:25:05 10.3125°C 107.812% 3.37V v4 52.0789 / 5.11276 290 ttn.v3 1.154km -125 -14 867.1MHz, SF9BW125, 4/5CR
2026-05-08 04:08:56 10.4375°C -4.5% 3.37V v4 52.0789 / 5.11276 289 ttn.v3 - -117 -14.25 868.5MHz, SF9BW125, 4/5CR
2026-05-08 03:52:48 10.5625°C 19.5625% 3.37V v4 52.0789 / 5.11276 288 ttn.v3 - -114 -3.5 867.9MHz, SF9BW125, 4/5CR
3.291km -109 -5.25 867.9MHz, SF9BW125, 4/5CR
2026-05-08 03:20:31 10.875°C 71.0625% 3.37V v4 52.0789 / 5.11276 286 ttn.v3 2.78km -129 -12.5 867.7MHz, SF9BW125, 4/5CR
2026-05-08 02:15:56 11.5°C 105% 3.37V v4 52.0789 / 5.11276 282 ttn.v3 - -122 -9 867.3MHz, SF9BW125, 4/5CR
2.78km -128 -11 867.3MHz, SF9BW125, 4/5CR
2026-05-08 01:11:21 11.9375°C 118.312% 3.37V v4 52.0789 / 5.11276 278 ttn.v3 - -116 -1 867.9MHz, SF9BW125, 4/5CR
3.291km -110 -3.75 867.9MHz, SF9BW125, 4/5CR
2.78km -127 -10.25 867.9MHz, SF9BW125, 4/5CR
2026-05-08 00:55:12 12.0625°C -4.6875% 3.37V v4 52.0789 / 5.11276 277 ttn.v3 - -127 -12.75 868.5MHz, SF9BW125, 4/5CR
2026-05-08 00:39:03 12.25°C -3.625% 3.37V v4 52.0789 / 5.11276 276 ttn.v3 2.78km -130 -14.25 867.7MHz, SF9BW125, 4/5CR
2026-05-07 23:34:27 13.0625°C 92.5% 3.37V v4 52.0789 / 5.11276 272 ttn.v3 2.78km -127 -11 867.3MHz, SF9BW125, 4/5CR
1.154km -124 -13.5 867.3MHz, SF9BW125, 4/5CR
2026-05-07 23:18:18 13.25°C 96.9375% 3.37V v4 52.0789 / 5.11276 271 ttn.v3 - -127 -14.25 868.5MHz, SF9BW125, 4/5CR
2026-05-07 23:02:09 13.4375°C 94.5% 3.37V v4 52.0789 / 5.11276 270 ttn.v3 3.291km -109 -11.5 867.1MHz, SF9BW125, 4/5CR
2.78km -129 -12.25 867.1MHz, SF9BW125, 4/5CR
2026-05-07 22:29:50 13.8125°C 82.875% 3.37V v4 52.0789 / 5.11276 268 ttn.v3 3.291km -109 -4.25 867.9MHz, SF9BW125, 4/5CR
- -117 -7.25 867.9MHz, SF9BW125, 4/5CR
1.154km -125 -15 867.9MHz, SF9BW125, 4/5CR
2026-05-07 21:57:32 14.0625°C 76.875% 3.37V v4 52.0789 / 5.11276 266 ttn.v3 1.154km -124 -13 867.7MHz, SF9BW125, 4/5CR
2026-05-07 20:20:35 14.625°C 73.5625% 3.37V v4 52.0789 / 5.11276 260 ttn.v3 3.291km -109 -5.25 867.1MHz, SF9BW125, 4/5CR
2.78km -129 -11.75 867.1MHz, SF9BW125, 4/5CR
- -130 -13.25 867.1MHz, SF9BW125, 4/5CR
2026-05-07 20:04:26 14.6875°C 71.375% 3.37V v4 52.0789 / 5.11276 259 ttn.v3 - -119 -13.25 868.5MHz, SF9BW125, 4/5CR
- -127 -13.5 868.5MHz, SF9BW125, 4/5CR
2026-05-07 19:48:16 14.8125°C 71.125% 3.37V v4 52.0789 / 5.11276 258 ttn.v3 3.291km -110 -6.5 867.9MHz, SF9BW125, 4/5CR
2026-05-07 19:15:57 14.9375°C 69.8125% 3.37V v4 52.0789 / 5.11276 256 ttn.v3 1.154km -123 -13.8 867.7MHz, SF9BW125, 4/5CR
2026-05-07 17:39:00 15.875°C 64.3125% 3.37V v4 52.0789 / 5.11276 250 ttn.v3 3.291km -109 -7.25 867.1MHz, SF9BW125, 4/5CR
2.78km -129 -12.75 867.1MHz, SF9BW125, 4/5CR
- -131 -14 867.1MHz, SF9BW125, 4/5CR
2026-05-07 17:06:40 15.8125°C 65.125% 3.37V v4 52.0789 / 5.11276 248 ttn.v3 - -116 -2.75 867.9MHz, SF9BW125, 4/5CR
3.291km -110 -4.75 867.9MHz, SF9BW125, 4/5CR
1.154km -125 -12.2 867.9MHz, SF9BW125, 4/5CR
2026-05-07 16:34:21 15.8125°C 65.5625% 3.37V v4 52.0789 / 5.11276 246 ttn.v3 2.78km -128 -11.75 867.7MHz, SF9BW125, 4/5CR
1.154km -124 -12 867.7MHz, SF9BW125, 4/5CR
2026-05-07 15:29:42 15.5°C 66.4375% 3.37V v4 52.0789 / 5.11276 242 ttn.v3 2.78km -128 -12.5 867.3MHz, SF9BW125, 4/5CR
- -125 -13 867.3MHz, SF9BW125, 4/5CR
2026-05-07 14:57:23 15.6875°C 66.6875% 3.37V v4 52.0789 / 5.11276 240 ttn.v3 2.78km -129 -11.75 867.1MHz, SF9BW125, 4/5CR
2026-05-07 14:25:03 15.625°C 66.9375% 3.37V v4 52.0789 / 5.11276 238 ttn.v3 - -117 -7 867.9MHz, SF9BW125, 4/5CR
3.291km -107 -9.75 867.9MHz, SF9BW125, 4/5CR
2026-05-07 14:08:53 15.5625°C 66.875% 3.37V v4 52.0789 / 5.11276 237 ttn.v3 2.78km -128 -13.5 868.1MHz, SF9BW125, 4/5CR
2026-05-07 13:52:44 15.9375°C 65.0625% 3.37V v4 52.0789 / 5.11276 236 ttn.v3 - -123 -9.5 867.7MHz, SF9BW125, 4/5CR
2.78km -129 -14 867.7MHz, SF9BW125, 4/5CR
2026-05-07 12:15:46 14.6875°C -4.5% 3.37V v4 52.0789 / 5.11276 230 ttn.v3 - -130 -13 867.1MHz, SF9BW125, 4/5CR
2026-05-07 11:11:09 13.625°C 114.312% 3.37V v4 52.0789 / 5.11276 226 ttn.v3 3.291km -104 -6.5 867.7MHz, SF9BW125, 4/5CR
2026-05-07 09:34:15 11.3125°C 97.3125% 3.37V v4 52.0789 / 5.11276 220 ttn.v3 3.291km -107 -12.25 867.1MHz, SF9BW125, 4/5CR
2026-05-07 09:01:58 10.75°C 92.75% 3.37V v4 52.0789 / 5.11276 218 ttn.v3 3.291km -107 -8 867.9MHz, SF9BW125, 4/5CR
2026-05-07 08:29:41 9.9375°C 88.1875% 3.37V v4 52.0789 / 5.11276 216 ttn.v3 2.78km -126 -10 867.7MHz, SF9BW125, 4/5CR
2026-05-07 06:52:52 8.625°C 101.062% 3.37V v4 52.0789 / 5.11276 210 ttn.v3 3.291km -107 -6.25 867.1MHz, SF9BW125, 4/5CR
1.154km -125 -13.8 867.1MHz, SF9BW125, 4/5CR
2026-05-07 06:20:35 8.5°C 103.375% 3.37V v4 52.0789 / 5.11276 208 ttn.v3 3.291km -106 -4.25 867.9MHz, SF9BW125, 4/5CR
- -117 -5.25 867.9MHz, SF9BW125, 4/5CR
2026-05-07 05:32:11 8.375°C 88.0625% 3.37V v4 52.0789 / 5.11276 205 ttn.v3 - -116 -13.25 868.5MHz, SF9BW125, 4/5CR
2026-05-07 04:27:39 8.5625°C 12.125% 3.37V v4 52.0789 / 5.11276 201 ttn.v3 - -118 -10.5 868.1MHz, SF9BW125, 4/5CR
2026-05-07 04:11:30 8.6875°C 49.4375% 3.37V v4 52.0789 / 5.11276 200 ttn.v3 3.291km -103 -10.75 867.1MHz, SF9BW125, 4/5CR
1.154km -125 -15.2 867.1MHz, SF9BW125, 4/5CR
2026-05-07 03:57:02 8.8125°C 61.375% 3.37V v4 52.0789 / 5.11276 199 ttn.v3 2.78km -127 -17.75 868.5MHz, SF12BW125, 4/5CR
2026-05-07 03:39:21 8.9375°C 71.1875% 3.37V v4 52.079 / 5.11267 198 ttn.v3 - -116 -2.25 867.9MHz, SF9BW125, 4/5CR
3.29km -107 -4.25 867.9MHz, SF9BW125, 4/5CR
2026-05-07 03:07:04 9.25°C 103.562% 3.37V v4 52.079 / 5.11267 196 ttn.v3 2.78km -131 -14 867.7MHz, SF9BW125, 4/5CR
2026-05-07 02:50:56 9.3125°C 102.625% 3.37V v4 52.079 / 5.11267 195 ttn.v3 - -120 -11.25 868.1MHz, SF9BW125, 4/5CR
2.78km -127 -12.25 868.1MHz, SF9BW125, 4/5CR
2026-05-07 02:18:39 9.625°C 111.688% 3.37V v4 52.079 / 5.11267 193 ttn.v3 - -117 -14 868.5MHz, SF9BW125, 4/5CR
2026-05-07 02:02:31 9.75°C 113.25% 3.37V v4 52.079 / 5.11267 192 ttn.v3 - -119 -8.75 867.3MHz, SF9BW125, 4/5CR
2026-05-07 01:30:14 10.4375°C -3.75% 3.37V v4 52.079 / 5.11267 190 ttn.v3 1.15km -125 -14.8 867.1MHz, SF9BW125, 4/5CR
2026-05-07 01:14:06 10.5625°C -4.1875% 3.37V v4 52.079 / 5.11267 189 ttn.v3 - -120 -14.75 868.1MHz, SF9BW125, 4/5CR
2026-05-07 00:57:57 10.875°C 115.375% 3.37V v4 52.079 / 5.11267 188 ttn.v3 3.29km -108 -4.25 867.9MHz, SF9BW125, 4/5CR
- -116 -5.25 867.9MHz, SF9BW125, 4/5CR
2026-05-07 00:41:48 11.125°C 114.688% 3.37V v4 52.079 / 5.11267 187 ttn.v3 - -126 -11.25 868.5MHz, SF9BW125, 4/5CR
2026-05-06 23:04:56 11.75°C 95.5625% 3.37V v4 52.079 / 5.11267 181 ttn.v3 - -118 -13.25 868.5MHz, SF9BW125, 4/5CR
- -128 -13.25 868.5MHz, SF9BW125, 4/5CR
2026-05-06 22:48:47 11.875°C 97.75% 3.37V v4 52.079 / 5.11267 180 ttn.v3 3.29km -109 -10 867.1MHz, SF9BW125, 4/5CR
1.15km -125 -14 867.1MHz, SF9BW125, 4/5CR
2026-05-06 22:16:29 12.3125°C 97.5625% 3.37V v4 52.079 / 5.11267 178 ttn.v3 - -117 -4.75 867.9MHz, SF9BW125, 4/5CR
2.78km -128 -12.75 867.9MHz, SF9BW125, 4/5CR
2026-05-06 22:00:20 12.5625°C 107.25% 3.37V v4 52.079 / 5.11267 177 ttn.v3 2.78km -127 -12 868.1MHz, SF9BW125, 4/5CR
2026-05-06 20:07:17 13.0625°C 70.9375% 3.37V v4 52.079 / 5.11267 170 ttn.v3 1.15km -125 -14.2 867.1MHz, SF9BW125, 4/5CR
2026-05-06 19:34:59 13.375°C 69.375% 3.37V v4 52.079 / 5.11267 168 ttn.v3 - -116 -5.25 867.9MHz, SF9BW125, 4/5CR
3.29km -109 -5.75 867.9MHz, SF9BW125, 4/5CR
2.78km -129 -12.75 867.9MHz, SF9BW125, 4/5CR
2026-05-06 19:02:41 13.5°C 64.5625% 3.37V v4 52.079 / 5.11267 166 ttn.v3 2.78km -127 -13 867.7MHz, SF9BW125, 4/5CR
2026-05-06 18:14:13 13.5625°C 66.625% 3.37V v4 52.079 / 5.11267 163 ttn.v3 - -115 -10.25 868.5MHz, SF9BW125, 4/5CR
2026-05-06 17:58:04 13.625°C 65.1875% 3.37V v4 52.079 / 5.11267 162 ttn.v3 - -120 -10 867.3MHz, SF9BW125, 4/5CR
2026-05-06 17:25:46 13.5°C 65.625% 3.37V v4 52.079 / 5.11267 160 ttn.v3 3.29km -109 -6.25 867.1MHz, SF9BW125, 4/5CR
1.15km -124 -13 867.1MHz, SF9BW125, 4/5CR
2026-05-06 16:37:18 13.25°C 67.8125% 3.37V v4 52.079 / 5.11267 157 ttn.v3 - -115 -12 868.5MHz, SF9BW125, 4/5CR
2026-05-06 15:32:42 13.125°C 67.0625% 3.37V v4 52.079 / 5.11267 153 ttn.v3 1.15km -124 -13 868.1MHz, SF9BW125, 4/5CR
2026-05-06 15:16:33 13.4375°C 66.5625% 3.37V v4 52.079 / 5.11267 152 ttn.v3 - -117 -6 867.3MHz, SF9BW125, 4/5CR
2026-05-06 14:44:14 13.8125°C 62.9375% 3.37V v4 52.079 / 5.11267 150 ttn.v3 - -118 -6.5 867.1MHz, SF9BW125, 4/5CR
- -130 -13.25 867.1MHz, SF9BW125, 4/5CR
1.15km -125 -14.2 867.1MHz, SF9BW125, 4/5CR
2026-05-06 14:11:56 13.9375°C 63.625% 3.37V v4 52.079 / 5.11267 148 ttn.v3 3.29km -108 -5 867.9MHz, SF9BW125, 4/5CR
2.78km -128 -12 867.9MHz, SF9BW125, 4/5CR
2026-05-06 13:55:47 14°C 66.3125% 3.37V v4 52.079 / 5.11267 147 ttn.v3 - -120 -10 868.1MHz, SF9BW125, 4/5CR
2.78km -128 -12.5 868.1MHz, SF9BW125, 4/5CR
2026-05-06 13:39:37 14.1875°C 72.875% 3.37V v4 52.079 / 5.11267 146 ttn.v3 2.78km -129 -13.25 867.7MHz, SF9BW125, 4/5CR
2026-05-06 13:23:28 13.875°C 71.5% 3.37V v4 52.079 / 5.11267 145 ttn.v3 - -114 -8.25 868.5MHz, SF9BW125, 4/5CR
- -127 -11.75 868.5MHz, SF9BW125, 4/5CR
2026-05-06 12:02:50 14.0625°C 22.4375% 3.37V v4 52.079 / 5.11267 140 ttn.v3 2.78km -129 -13.25 867.1MHz, SF9BW125, 4/5CR
2026-05-06 11:46:41 14.0625°C -2.4375% 3.37V v4 52.079 / 5.11267 139 ttn.v3 - -117 -12.5 868.5MHz, SF9BW125, 4/5CR
2026-05-06 10:58:13 13.3125°C 113.625% 3.37V v4 52.079 / 5.11267 136 ttn.v3 - -122 -9.75 867.7MHz, SF9BW125, 4/5CR
1.15km -124 -10.8 867.7MHz, SF9BW125, 4/5CR
2.78km -130 -13.75 867.7MHz, SF9BW125, 4/5CR
2026-05-06 10:42:04 13.125°C 107.938% 3.37V v4 52.079 / 5.11267 135 ttn.v3 1.15km -124 -13.5 868.1MHz, SF9BW125, 4/5CR
2026-05-06 09:53:38 12.3125°C 97.3125% 3.37V v4 52.079 / 5.11267 132 ttn.v3 - -124 -10 867.3MHz, SF9BW125, 4/5CR
2.78km -128 -11.5 867.3MHz, SF9BW125, 4/5CR
2026-05-06 09:21:20 11.875°C 91.1875% 3.37V v4 52.079 / 5.11267 130 ttn.v3 1.15km -125 -10.8 867.1MHz, SF9BW125, 4/5CR
3.29km -108 -12 867.1MHz, SF9BW125, 4/5CR
- -122 -12.5 867.1MHz, SF9BW125, 4/5CR
- -128 -12.75 867.1MHz, SF9BW125, 4/5CR
2026-05-06 08:49:03 11.5625°C 96% 3.37V v4 52.079 / 5.11267 128 ttn.v3 3.29km -104 -6 867.9MHz, SF9BW125, 4/5CR
- -118 -8.25 867.9MHz, SF9BW125, 4/5CR
2026-05-06 08:32:54 11.1875°C 90.6875% 3.37V v4 52.079 / 5.11267 127 ttn.v3 - -126 -11.5 868.5MHz, SF9BW125, 4/5CR
2026-05-06 08:16:45 11°C 80.375% 3.37V v4 52.079 / 5.11267 126 ttn.v3 1.15km -124 -11.8 867.7MHz, SF9BW125, 4/5CR
2.78km -129 -13 867.7MHz, SF9BW125, 4/5CR
2026-05-06 07:28:20 10.4375°C 78.375% 3.37V v4 52.079 / 5.11267 123 ttn.v3 2.78km -126 -10.25 868.1MHz, SF9BW125, 4/5CR
2026-05-06 07:12:11 10.375°C 74.6875% 3.37V v4 52.079 / 5.11267 122 ttn.v3 2.78km -128 -12.25 867.3MHz, SF9BW125, 4/5CR
2026-05-06 06:56:03 10.25°C 79.1875% 3.37V v4 52.079 / 5.11267 121 ttn.v3 - -130 -13 868.5MHz, SF9BW125, 4/5CR
- -117 -14 868.5MHz, SF9BW125, 4/5CR
2026-05-06 06:39:54 10.1875°C 79.3125% 3.37V v4 52.079 / 5.11267 120 ttn.v3 3.29km -105 -9.5 867.1MHz, SF9BW125, 4/5CR
1.15km -125 -14.5 867.1MHz, SF9BW125, 4/5CR
2026-05-06 06:07:37 10°C 94.1875% 3.37V v4 52.079 / 5.11267 118 ttn.v3 - -116 -1 867.9MHz, SF9BW125, 4/5CR
3.29km -110 -8 867.9MHz, SF9BW125, 4/5CR
2.78km -128 -11 867.9MHz, SF9BW125, 4/5CR
2026-05-06 05:19:12 9.875°C 100.562% 3.37V v4 52.079 / 5.11267 115 ttn.v3 - -119 -12.75 868.5MHz, SF9BW125, 4/5CR
2.78km -124 -13.5 868.5MHz, SF9BW125, 4/5CR
2026-05-06 05:03:04 9.875°C 100.5% 3.37V v4 52.079 / 5.11267 114 ttn.v3 1.15km -122 -14.8 867.5MHz, SF9BW125, 4/5CR
2026-05-06 04:30:47 9.875°C 103.562% 3.37V v4 52.079 / 5.11267 112 ttn.v3 - -117 -9 867.3MHz, SF9BW125, 4/5CR
1.15km -124 -12.5 867.3MHz, SF9BW125, 4/5CR
2026-05-06 04:14:39 9.9375°C 109.625% 3.37V v4 52.079 / 5.11267 111 ttn.v3 - -116 -7.5 868.1MHz, SF9BW125, 4/5CR
2026-05-06 03:58:30 9.9375°C 113.5% 3.37V v4 52.079 / 5.11267 110 ttn.v3 3.29km -104 -8.75 867.1MHz, SF9BW125, 4/5CR
1.15km -125 -11 867.1MHz, SF9BW125, 4/5CR
- -130 -12.75 867.1MHz, SF9BW125, 4/5CR
2026-05-06 03:42:22 10.125°C 88.1875% 3.37V v4 52.079 / 5.11267 109 ttn.v3 - -128 -14.25 868.5MHz, SF9BW125, 4/5CR
2026-05-06 03:26:13 10.1875°C 88.25% 3.37V v4 52.079 / 5.11267 108 ttn.v3 - -113 1.25 867.9MHz, SF9BW125, 4/5CR
2.78km -127 -10.5 867.9MHz, SF9BW125, 4/5CR
1.15km -125 -13.5 867.9MHz, SF9BW125, 4/5CR
2026-05-06 03:10:05 10.25°C 88.3125% 3.37V v4 52.079 / 5.11267 107 ttn.v3 - -127 -14 868.3MHz, SF9BW125, 4/5CR
2026-05-06 02:53:56 10.1875°C 88.3125% 3.37V v4 52.079 / 5.11267 106 ttn.v3 2.78km -126 -10 867.7MHz, SF9BW125, 4/5CR
- -124 -10.75 867.7MHz, SF9BW125, 4/5CR
1.15km -124 -12 867.7MHz, SF9BW125, 4/5CR
2026-05-06 02:37:48 10.1875°C 88.1875% 3.37V v4 52.079 / 5.11267 105 ttn.v3 - -123 -11.75 868.1MHz, SF9BW125, 4/5CR
2026-05-06 02:21:40 10.1875°C 88.5% 3.37V v4 52.079 / 5.11267 104 ttn.v3 1.15km -123 -14 867.5MHz, SF9BW125, 4/5CR
2026-05-06 02:06:41 10.1875°C 113.938% 3.37V v4 52.079 / 5.11267 103 ttn.v3 - -126 -12.25 868.5MHz, SF12BW125, 4/5CR
- -117 -13.5 868.5MHz, SF12BW125, 4/5CR
2026-05-06 01:49:27 10.1875°C 113.312% 3.37V v4 No position 102 ttn.v3 - -129 -13 867.3MHz, SF9BW125, 4/5CR
- -121 -13.75 867.3MHz, SF9BW125, 4/5CR
- -124 -14 867.3MHz, SF9BW125, 4/5CR
2026-05-06 01:17:11 10.1875°C 88.3125% 3.37V v4 No position 100 ttn.v3 - -123 -10 867.1MHz, SF9BW125, 4/5CR
- -130 -12.75 867.1MHz, SF9BW125, 4/5CR
- -125 -14 867.1MHz, SF9BW125, 4/5CR
2026-05-06 01:01:02 10.1875°C 88.3125% 3.37V v4 No position 99 ttn.v3 - -126 -15.5 868.1MHz, SF9BW125, 4/5CR
2026-05-06 00:44:54 10.1875°C 88.375% 3.37V v4 No position 98 ttn.v3 - -115 -2.75 867.9MHz, SF9BW125, 4/5CR
- -128 -11.5 867.9MHz, SF9BW125, 4/5CR
2026-05-06 00:28:45 10.25°C 88.125% 3.37V v4 No position 97 ttn.v3 - -117 -11.5 868.5MHz, SF9BW125, 4/5CR
- -127 -12.25 868.5MHz, SF9BW125, 4/5CR
2026-05-06 00:12:37 10.25°C 88.0625% 3.37V v4 No position 96 ttn.v3 - -129 -12.75 867.7MHz, SF9BW125, 4/5CR
2026-05-05 23:56:28 10.25°C 88.3125% 3.37V v4 No position 95 ttn.v3 - -128 -14 868.3MHz, SF9BW125, 4/5CR
2026-05-05 23:24:12 10.5°C 88.6875% 3.37V v4 No position 93 ttn.v3 - -129 -14.25 868.1MHz, SF9BW125, 4/5CR
2026-05-05 23:08:03 10.625°C 89.4375% 3.37V v4 No position 92 ttn.v3 - -132 -14 867.3MHz, SF9BW125, 4/5CR
2026-05-05 22:51:54 10.9375°C 91.125% 3.37V v4 No position 91 ttn.v3 - -119 -15 868.5MHz, SF9BW125, 4/5CR
2026-05-05 22:35:46 11.25°C 91.0625% 3.37V v4 No position 90 ttn.v3 - -118 -5 867.1MHz, SF9BW125, 4/5CR
- -110 -7.75 867.1MHz, SF9BW125, 4/5CR
- -125 -14.2 867.1MHz, SF9BW125, 4/5CR
2026-05-05 22:03:28 11.5°C 89.6875% 3.37V v4 No position 88 ttn.v3 - -130 -13.5 867.9MHz, SF9BW125, 4/5CR
- -118 -13.75 867.9MHz, SF9BW125, 4/5CR
2026-05-05 21:47:20 11.625°C 90.125% 3.37V v4 No position 87 ttn.v3 - -122 -11.75 868.1MHz, SF9BW125, 4/5CR
2026-05-05 21:31:11 11.875°C 90.6875% 3.37V v4 No position 86 ttn.v3 - -126 -11.25 867.7MHz, SF9BW125, 4/5CR
- -124 -12.8 867.7MHz, SF9BW125, 4/5CR
2026-05-05 21:15:02 11.875°C 90.875% 3.37V v4 No position 85 ttn.v3 - -115 -10.5 868.5MHz, SF9BW125, 4/5CR
- -127 -13.5 868.5MHz, SF9BW125, 4/5CR
2026-05-05 20:58:53 12.25°C 92.625% 3.37V v4 No position 84 ttn.v3 - -123 -12.8 867.5MHz, SF9BW125, 4/5CR
2026-05-05 20:26:35 12.6875°C 91.875% 3.37V v4 No position 82 ttn.v3 - -124 -12.8 867.3MHz, SF9BW125, 4/5CR
2026-05-05 19:54:17 13.25°C 94.375% 3.37V v4 No position 80 ttn.v3 - -103 -11.75 867.1MHz, SF9BW125, 4/5CR
2026-05-05 19:38:08 13.6875°C 99.875% 3.37V v4 No position 79 ttn.v3 - -116 -11.5 868.5MHz, SF9BW125, 4/5CR
2026-05-05 19:21:59 13.875°C 97.375% 3.37V v4 No position 78 ttn.v3 - -127 -10.5 867.9MHz, SF9BW125, 4/5CR
- -125 -12 867.9MHz, SF9BW125, 4/5CR
2026-05-05 18:49:40 14.375°C 104.438% 3.37V v4 No position 76 ttn.v3 - -124 -11.5 867.7MHz, SF9BW125, 4/5CR
- -126 -12.25 867.7MHz, SF9BW125, 4/5CR
2026-05-05 18:17:21 14.875°C 110.5% 3.37V v4 No position 74 ttn.v3 - -122 -15.2 867.5MHz, SF9BW125, 4/5CR
2026-05-05 17:45:02 14.9375°C 108.75% 3.37V v4 No position 72 ttn.v3 - -124 -12 867.3MHz, SF9BW125, 4/5CR
- -129 -14.25 867.3MHz, SF9BW125, 4/5CR
2026-05-05 17:12:43 14.875°C 103% 3.37V v4 No position 70 ttn.v3 - -108 -5 867.1MHz, SF9BW125, 4/5CR
- -124 -9.25 867.1MHz, SF9BW125, 4/5CR
- -130 -14 867.1MHz, SF9BW125, 4/5CR
2026-05-05 16:24:15 14.625°C 102.875% 3.37V v4 No position 67 ttn.v3 - -128 -14.5 868.5MHz, SF9BW125, 4/5CR
2026-05-05 16:08:06 14.5625°C 103.5% 3.37V v4 No position 66 ttn.v3 - -124 -13.2 867.7MHz, SF9BW125, 4/5CR
2026-05-05 15:03:28 13.875°C 91.25% 3.37V v4 No position 62 ttn.v3 - -129 -13.5 867.3MHz, SF9BW125, 4/5CR
2026-05-05 13:58:52 12.3125°C 88.4375% 3.37V v4 No position 58 ttn.v3 - -128 -12.5 867.9MHz, SF9BW125, 4/5CR
2026-05-05 13:42:43 11.9375°C 99.625% 3.37V v4 No position 57 ttn.v3 - -117 -10.25 868.1MHz, SF9BW125, 4/5CR
2026-05-05 13:10:26 11.625°C 79.1875% 3.37V v4 No position 55 ttn.v3 - -126 -12.25 868.5MHz, SF9BW125, 4/5CR
- -125 -15.75 868.5MHz, SF9BW125, 4/5CR
2026-05-05 11:49:42 11.1875°C 63.9375% 3.37V v4 No position 50 ttn.v3 - -104 -8.75 867.1MHz, SF9BW125, 4/5CR
- -129 -12.5 867.1MHz, SF9BW125, 4/5CR
- -125 -14.5 867.1MHz, SF9BW125, 4/5CR
2026-05-05 11:33:33 11.0625°C 73.75% 3.37V v4 No position 49 ttn.v3 - -116 -11 868.5MHz, SF9BW125, 4/5CR
- -127 -13.25 868.5MHz, SF9BW125, 4/5CR
2026-05-05 10:28:59 10.6875°C 59.1875% 3.37V v4 No position 45 ttn.v3 - -119 -6 868.1MHz, SF9BW125, 4/5CR
- -127 -12.75 868.1MHz, SF9BW125, 4/5CR
2026-05-05 09:56:42 10.1875°C 41.875% 3.37V v4 No position 43 ttn.v3 - -118 -12 868.5MHz, SF9BW125, 4/5CR
- -127 -13.5 868.5MHz, SF9BW125, 4/5CR
2026-05-05 09:40:34 9.875°C 38% 3.37V v4 No position 42 ttn.v3 - -125 -11.75 867.3MHz, SF9BW125, 4/5CR
- -124 -14.2 867.3MHz, SF9BW125, 4/5CR
2026-05-05 09:08:17 9.875°C 32.875% 3.37V v4 No position 40 ttn.v3 - -110 -5.75 867.1MHz, SF9BW125, 4/5CR
2026-05-05 08:36:00 9.5625°C 32.0625% 3.37V v4 No position 38 ttn.v3 - -110 -6.75 867.9MHz, SF9BW125, 4/5CR
- -114 -11 867.9MHz, SF9BW125, 4/5CR
- -125 -13 867.9MHz, SF9BW125, 4/5CR
2026-05-05 08:03:44 9.5625°C 30.125% 3.37V v4 No position 36 ttn.v3 - -126 -9.75 867.7MHz, SF9BW125, 4/5CR
- -110 -10.5 867.7MHz, SF9BW125, 4/5CR
2026-05-05 07:15:19 9.625°C 29.75% 3.37V v4 No position 33 ttn.v3 - -120 -5.5 868.1MHz, SF9BW125, 4/5CR
- -128 -13.25 868.1MHz, SF9BW125, 4/5CR
- -123 -14.2 868.1MHz, SF9BW125, 4/5CR
2026-05-05 06:59:10 9.6875°C 28.75% 3.37V v4 No position 32 ttn.v3 - -117 -11 867.3MHz, SF9BW125, 4/5CR
2026-05-05 06:43:02 9.625°C 29.0625% 3.37V v4 No position 31 ttn.v3 - -127 -13.5 868.5MHz, SF9BW125, 4/5CR
2026-05-05 06:26:54 9.6875°C 29.4375% 3.37V v4 No position 30 ttn.v3 - -110 -5.75 867.1MHz, SF9BW125, 4/5CR
- -123 -8 867.1MHz, SF9BW125, 4/5CR
- -130 -13.5 867.1MHz, SF9BW125, 4/5CR
2026-05-05 05:54:37 9.875°C 30.5% 3.37V v4 No position 28 ttn.v3 - -109 -3 867.9MHz, SF9BW125, 4/5CR
- -130 -13 867.9MHz, SF9BW125, 4/5CR
2026-05-05 05:22:20 10.125°C 29.9375% 3.37V v4 No position 26 ttn.v3 - -124 -12.5 867.7MHz, SF9BW125, 4/5CR
- -128 -13.25 867.7MHz, SF9BW125, 4/5CR
2026-05-05 05:06:11 10.25°C 30% 3.37V v4 No position 25 ttn.v3 - -126 -12.75 868.5MHz, SF9BW125, 4/5CR
2026-05-05 04:01:37 10.75°C 30.9375% 3.37V v4 No position 21 ttn.v3 - -124 -12.5 868.1MHz, SF9BW125, 4/5CR
- -122 -15 868.1MHz, SF9BW125, 4/5CR
2026-05-05 03:45:29 10.9375°C 31.875% 3.37V v4 No position 20 ttn.v3 - -109 -7.25 867.1MHz, SF9BW125, 4/5CR
- -129 -12.25 867.1MHz, SF9BW125, 4/5CR
2026-05-05 03:29:20 11.125°C 33% 3.37V v4 No position 19 ttn.v3 - -115 -9.75 868.5MHz, SF9BW125, 4/5CR
- -128 -13.5 868.5MHz, SF9BW125, 4/5CR
- -124 -14 868.5MHz, SF9BW125, 4/5CR
2026-05-05 03:13:11 11.375°C 31.125% 3.37V v4 No position 18 ttn.v3 - -117 -3.5 867.9MHz, SF9BW125, 4/5CR
- -110 -7.5 867.9MHz, SF9BW125, 4/5CR
2026-05-05 02:57:02 11.4375°C 31.875% 3.37V v4 No position 17 ttn.v3 - -126 -13.25 868.3MHz, SF9BW125, 4/5CR
2026-05-05 02:40:54 11.5625°C 34% 3.37V v4 No position 16 ttn.v3 - -106 -10.5 867.7MHz, SF9BW125, 4/5CR
- -124 -11 867.7MHz, SF9BW125, 4/5CR
- -128 -11.5 867.7MHz, SF9BW125, 4/5CR
2026-05-05 02:24:45 11.6875°C 34.875% 3.37V v4 No position 15 ttn.v3 - -126 -12.5 868.1MHz, SF9BW125, 4/5CR
- -119 -13 868.1MHz, SF9BW125, 4/5CR
2026-05-05 01:52:27 12.125°C 32.5625% 3.37V v4 No position 13 ttn.v3 - -127 -11.75 868.5MHz, SF9BW125, 4/5CR
- -124 -13.75 868.5MHz, SF9BW125, 4/5CR
2026-05-05 01:36:18 12.25°C 33.4375% 3.37V v4 No position 12 ttn.v3 - -115 -4 867.3MHz, SF9BW125, 4/5CR
2026-05-05 01:04:01 12.625°C 30.4375% 3.37V v4 No position 10 ttn.v3 - -119 -3.5 867.1MHz, SF9BW125, 4/5CR
- -108 -9.25 867.1MHz, SF9BW125, 4/5CR
2026-05-05 00:31:43 12.8125°C 30.8125% 3.37V v4 No position 8 ttn.v3 - -117 -6 867.9MHz, SF9BW125, 4/5CR
- -109 -10.5 867.9MHz, SF9BW125, 4/5CR
- -128 -11.5 867.9MHz, SF9BW125, 4/5CR
2026-05-04 23:59:33 13.125°C 27.4375% 3.37V v4 No position 6 ttn.v3 - -122 -9 867.7MHz, SF9BW125, 4/5CR
- -124 -10 867.7MHz, SF9BW125, 4/5CR
- -127 -10.5 867.7MHz, SF9BW125, 4/5CR
2026-05-04 23:43:24 13.3125°C 27.6875% 3.37V v4 No position 5 ttn.v3 - -127 -12.75 868.3MHz, SF9BW125, 4/5CR
2026-05-04 23:27:15 13.4375°C 30.5625% 3.37V v4 No position 4 ttn.v3 - -123 -15.2 867.5MHz, SF9BW125, 4/5CR
2026-05-04 23:11:06 13.625°C 23.25% 3.37V v4 No position 3 ttn.v3 - -129 -13 868.1MHz, SF9BW125, 4/5CR
2026-05-04 22:54:57 13.6875°C 26.625% 3.37V v4 No position 2 ttn.v3 - -127 -11.25 867.3MHz, SF9BW125, 4/5CR
2026-05-04 22:38:48 13.75°C 26.3125% 3.37V v4 No position 1 ttn.v3 - -124 -14 868.5MHz, SF9BW125, 4/5CR
2026-05-04 22:22:47 13.9375°C 29.375% 3.37V v4 No position 0 ttn.v3 - -108 -9.25 867.1MHz, SF9BW125, 4/5CR
2025-12-25 22:47:37 -2.8125°C 87.4375% 3.39V v4 52.079 / 5.1127 29275 ttn.v3 - -131 -13.25 867.1MHz, SF9BW125, 4/5CR
2025-12-25 22:15:25 -2.6875°C 88.75% 3.39V v4 52.079 / 5.1127 29273 ttn.v3 2.782km -129 -12.75 867.9MHz, SF9BW125, 4/5CR
2025-12-25 21:43:14 -2.5°C 89.625% 3.39V v4 52.079 / 5.1127 29271 ttn.v3 - -127 -10.5 867.7MHz, SF9BW125, 4/5CR
2025-12-25 19:34:28 -2.0625°C 93.75% 3.39V v4 52.079 / 5.1127 29263 ttn.v3 - -121 -4.25 867.9MHz, SF9BW125, 4/5CR
2.782km -128 -12.75 867.9MHz, SF9BW125, 4/5CR
2025-12-25 17:57:52 -1.5°C 105.125% 3.39V v4 52.079 / 5.1127 29257 ttn.v3 - -127 -10.25 867.3MHz, SF9BW125, 4/5CR
2025-12-25 16:53:28 -1.125°C 117.375% 3.39V v4 52.079 / 5.1127 29253 ttn.v3 - -123 -7.25 867.9MHz, SF9BW125, 4/5CR
2.782km -129 -12.5 867.9MHz, SF9BW125, 4/5CR
2025-12-25 15:16:52 -0.125°C 15.875% 3.39V v4 52.079 / 5.1127 29247 ttn.v3 - -128 -13 867.3MHz, SF9BW125, 4/5CR
2025-12-25 14:44:40 0°C 13.875% 3.39V v4 52.079 / 5.1127 29245 ttn.v3 - -129 -12.5 867.1MHz, SF9BW125, 4/5CR
2025-12-25 14:28:33 -0.125°C 7.5625% 3.39V v4 52.079 / 5.1127 29244 ttn.v3 - -123 -9.75 868.1MHz, SF9BW125, 4/5CR
2025-12-25 14:12:27 0°C 1.75% 3.39V v4 52.079 / 5.1127 29243 ttn.v3 - -127 -10.75 867.9MHz, SF9BW125, 4/5CR
2.782km -128 -11.5 867.9MHz, SF9BW125, 4/5CR
2025-12-25 13:56:21 0°C 118.062% 3.39V v4 52.079 / 5.1127 29242 ttn.v3 - -116 -13.75 868.5MHz, SF9BW125, 4/5CR
2025-12-25 13:40:14 0°C -3.75% 3.38V v4 52.079 / 5.1127 29241 ttn.v3 2.782km -132 -15.5 867.7MHz, SF9BW125, 4/5CR
2025-12-25 12:51:56 -0.875°C 114.75% 3.39V v4 52.079 / 5.1127 29238 ttn.v3 2.782km -129 -13.5 868.1MHz, SF9BW125, 4/5CR
2025-12-25 12:03:38 -1.75°C 114.312% 3.39V v4 52.079 / 5.1127 29235 ttn.v3 - -130 -13 867.1MHz, SF9BW125, 4/5CR
2025-12-25 11:31:27 -2.0625°C 117.688% 3.39V v4 52.079 / 5.1127 29233 ttn.v3 - -122 -6 867.9MHz, SF9BW125, 4/5CR
2025-12-25 09:54:53 -3.375°C 111.188% 3.39V v4 52.079 / 5.1127 29227 ttn.v3 3.288km -109 -7.75 867.3MHz, SF9BW125, 4/5CR
1.152km -124 -10.8 867.3MHz, SF9BW125, 4/5CR
2025-12-25 08:50:31 -3.875°C 104.938% 3.38V v4 52.079 / 5.1127 29223 ttn.v3 2.782km -129 -12.5 867.9MHz, SF9BW125, 4/5CR
2025-12-25 08:18:20 -3.75°C 109.438% 3.39V v4 52.079 / 5.1127 29221 ttn.v3 3.288km -110 -9.75 867.7MHz, SF9BW125, 4/5CR
2025-12-25 06:41:47 -3.25°C -3.25% 3.38V v4 52.079 / 5.1127 29215 ttn.v3 1.152km -125 -13 867.1MHz, SF9BW125, 4/5CR
2025-12-25 06:09:36 -3°C -1.8125% 3.39V v4 52.079 / 5.1127 29213 ttn.v3 3.288km -111 -9.5 867.9MHz, SF9BW125, 4/5CR
1.152km -125 -14 867.9MHz, SF9BW125, 4/5CR
2025-12-25 05:37:24 -2.75°C 6.125% 3.39V v4 52.079 / 5.1127 29211 ttn.v3 3.288km -102 -11 867.7MHz, SF9BW125, 4/5CR
2025-12-25 04:33:01 -2.375°C -2.3125% 3.38V v4 52.079 / 5.1127 29207 ttn.v3 1.152km -124 -13.2 867.3MHz, SF9BW125, 4/5CR
2025-12-25 04:00:50 -2.1875°C -3.1875% 3.39V v4 52.079 / 5.1127 29205 ttn.v3 1.152km -125 -11.8 867.1MHz, SF9BW125, 4/5CR
2025-12-25 03:28:38 -2°C 109.688% 3.39V v4 52.079 / 5.1127 29203 ttn.v3 3.288km -114 -10.75 867.9MHz, SF9BW125, 4/5CR
2.782km -129 -11.5 867.9MHz, SF9BW125, 4/5CR
1.152km -125 -13.2 867.9MHz, SF9BW125, 4/5CR
2025-12-25 03:12:32 -1.875°C 112.625% 3.38V v4 52.079 / 5.1127 29202 ttn.v3 1.152km -124 -12 868.1MHz, SF9BW125, 4/5CR

Message count: 200
Node count: 1

Messages per node

Number of messages in list aboveNodes
200

Statistics per gateway

GatewayNumber of messagesNumber of nodesNodes
921
771 (2.782km)
571 (3.288km)
571 (1.152km)
371

Filter by dataset